createdAt,value
2022-11-26T00:02:42.788Z,7.70
2022-11-26T00:05:33.688Z,7.80
2022-11-26T00:08:56.760Z,7.80
2022-11-26T00:11:27.689Z,7.80
2022-11-26T00:13:57.784Z,7.80
2022-11-26T00:16:24.960Z,7.80
2022-11-26T00:18:52.244Z,7.80
2022-11-26T00:21:26.046Z,7.90
2022-11-26T00:23:54.826Z,7.90
2022-11-26T00:26:24.939Z,7.90
2022-11-26T00:28:56.014Z,7.90
2022-11-26T00:31:24.359Z,7.90
2022-11-26T00:33:51.848Z,7.90
2022-11-26T00:36:27.861Z,7.90
2022-11-26T00:39:21.041Z,7.90
2022-11-26T00:41:52.620Z,7.90
2022-11-26T00:44:22.888Z,7.90
2022-11-26T00:46:50.793Z,7.90
2022-11-26T00:49:19.451Z,7.90
2022-11-26T00:51:47.248Z,7.90
2022-11-26T00:54:18.413Z,7.90
2022-11-26T00:56:47.058Z,7.90
2022-11-26T00:59:17.777Z,7.90
2022-11-26T01:01:45.258Z,7.90
2022-11-26T01:04:12.532Z,7.90
2022-11-26T01:06:42.651Z,7.90
2022-11-26T01:09:17.532Z,7.90
2022-11-26T01:11:46.440Z,8.00
2022-11-26T01:14:20.025Z,8.00
2022-11-26T01:16:48.635Z,8.00
2022-11-26T01:19:16.626Z,8.00
2022-11-26T01:21:44.023Z,8.00
2022-11-26T01:24:11.804Z,8.00
2022-11-26T01:26:41.297Z,8.10
2022-11-26T01:29:20.435Z,8.10
2022-11-26T01:31:48.074Z,8.10
2022-11-26T01:34:15.606Z,8.10
2022-11-26T01:36:43.009Z,8.10
2022-11-26T01:39:13.114Z,8.10
2022-11-26T01:42:01.120Z,8.20
2022-11-26T01:44:31.345Z,8.20
2022-11-26T01:46:59.523Z,8.20
2022-11-26T01:49:27.871Z,8.20
2022-11-26T01:52:05.172Z,8.20
2022-11-26T01:54:35.129Z,8.20
2022-11-26T01:57:11.872Z,8.30
2022-11-26T01:59:43.333Z,8.30
2022-11-26T02:02:11.257Z,8.30
2022-11-26T02:04:43.465Z,8.40
2022-11-26T02:07:10.769Z,8.30
2022-11-26T02:09:38.104Z,8.40
2022-11-26T02:12:05.657Z,8.40
2022-11-26T02:14:39.719Z,8.40
2022-11-26T02:17:27.019Z,8.40
2022-11-26T02:20:21.919Z,8.40
2022-11-26T02:23:28.668Z,8.40
2022-11-26T02:26:32.402Z,8.40
2022-11-26T02:29:15.912Z,8.40
2022-11-26T02:31:49.193Z,8.40
2022-11-26T02:34:49.502Z,8.40
2022-11-26T02:37:31.243Z,8.40
2022-11-26T02:39:58.537Z,8.40
2022-11-26T02:42:28.761Z,8.40
2022-11-26T02:45:00.521Z,8.40
2022-11-26T02:47:29.364Z,8.30
2022-11-26T02:49:59.061Z,8.30
2022-11-26T02:52:28.481Z,8.30
2022-11-26T02:54:57.013Z,8.30
2022-11-26T02:57:29.552Z,8.30
2022-11-26T02:59:57.153Z,8.30
2022-11-26T03:02:34.738Z,8.30
2022-11-26T03:05:03.578Z,8.30
2022-11-26T03:07:32.661Z,8.30
2022-11-26T03:10:02.088Z,8.30
2022-11-26T03:12:30.198Z,8.30
2022-11-26T03:14:57.701Z,8.30
2022-11-26T03:17:24.956Z,8.30
2022-11-26T03:19:52.933Z,8.30
2022-11-26T03:22:20.060Z,8.30
2022-11-26T03:24:47.329Z,8.30
2022-11-26T03:27:14.585Z,8.30
2022-11-26T03:29:41.832Z,8.30
2022-11-26T03:32:09.417Z,8.30
2022-11-26T03:34:36.920Z,8.30
2022-11-26T03:37:04.319Z,8.30
2022-11-26T03:39:31.382Z,8.30
2022-11-26T03:41:58.690Z,8.30
2022-11-26T03:44:25.794Z,8.30
2022-11-26T03:46:52.964Z,8.20
2022-11-26T03:49:20.244Z,8.20
2022-11-26T03:51:47.382Z,8.20
2022-11-26T03:54:14.917Z,8.20
2022-11-26T03:56:42.132Z,8.20
2022-11-26T03:59:09.312Z,8.20
2022-11-26T04:01:36.851Z,8.20
2022-11-26T04:04:04.652Z,8.20
2022-11-26T04:06:32.134Z,8.20
2022-11-26T04:08:59.249Z,8.20
2022-11-26T04:11:26.508Z,8.20
2022-11-26T04:13:53.593Z,8.20
2022-11-26T04:16:21.066Z,8.20
2022-11-26T04:18:48.406Z,8.20
2022-11-26T04:21:15.568Z,8.20
2022-11-26T04:23:42.674Z,8.20
2022-11-26T04:26:09.825Z,8.20
2022-11-26T04:28:36.996Z,8.20
2022-11-26T04:31:04.457Z,8.20
2022-11-26T04:33:31.776Z,8.20
2022-11-26T04:35:58.982Z,8.20
2022-11-26T04:38:26.278Z,8.20
2022-11-26T04:40:54.104Z,8.20
2022-11-26T04:43:21.763Z,8.20
2022-11-26T04:45:49.021Z,8.30
2022-11-26T04:48:16.545Z,8.30
2022-11-26T04:50:43.727Z,8.40
2022-11-26T04:53:10.958Z,8.40
2022-11-26T04:55:38.209Z,8.40
2022-11-26T04:58:05.357Z,8.40
2022-11-26T05:00:32.516Z,8.40
2022-11-26T05:02:59.794Z,8.40
2022-11-26T05:05:26.947Z,8.40
2022-11-26T05:07:54.305Z,8.40
2022-11-26T05:10:21.648Z,8.40
2022-11-26T05:12:48.787Z,8.40
2022-11-26T05:15:16.167Z,8.40
2022-11-26T05:17:43.354Z,8.40
2022-11-26T05:20:11.228Z,8.40
2022-11-26T05:22:38.443Z,8.40
2022-11-26T05:25:06.045Z,8.40
2022-11-26T05:27:33.206Z,8.40
2022-11-26T05:30:00.413Z,8.40
2022-11-26T05:32:27.813Z,8.40
2022-11-26T05:34:59.827Z,8.40
2022-11-26T05:37:27.870Z,8.30
2022-11-26T05:39:55.101Z,8.40
2022-11-26T05:42:22.315Z,8.30
2022-11-26T05:44:49.568Z,8.30
2022-11-26T05:47:16.676Z,8.30
2022-11-26T05:49:43.978Z,8.30
2022-11-26T05:52:11.278Z,8.30
2022-11-26T05:54:38.820Z,8.30
2022-11-26T05:57:06.547Z,8.30
2022-11-26T05:59:33.726Z,8.30
2022-11-26T06:02:00.919Z,8.30
2022-11-26T06:04:28.128Z,8.30
2022-11-26T06:06:55.406Z,8.30
2022-11-26T06:09:22.803Z,8.30
2022-11-26T06:11:51.038Z,8.30
2022-11-26T06:14:18.797Z,8.30
2022-11-26T06:16:46.007Z,8.30
2022-11-26T06:19:13.576Z,8.30
2022-11-26T06:21:40.709Z,8.30
2022-11-26T06:24:07.967Z,8.20
2022-11-26T06:26:35.215Z,8.20
2022-11-26T06:29:02.449Z,8.20
2022-11-26T06:31:29.865Z,8.20
2022-11-26T06:33:57.369Z,8.20
2022-11-26T06:36:24.947Z,8.20
2022-11-26T06:38:52.260Z,8.20
2022-11-26T06:41:19.612Z,8.20
2022-11-26T06:43:46.790Z,8.20
2022-11-26T06:46:14.195Z,8.20
2022-11-26T06:48:41.645Z,8.20
2022-11-26T06:51:11.718Z,8.20
2022-11-26T06:53:39.430Z,8.20
2022-11-26T06:56:14.971Z,8.20
2022-11-26T06:58:46.650Z,8.20
2022-11-26T07:01:18.199Z,8.20
2022-11-26T07:03:45.953Z,8.20
2022-11-26T07:06:22.292Z,8.30
2022-11-26T07:08:49.932Z,8.30
2022-11-26T07:11:17.861Z,8.30
2022-11-26T07:13:45.259Z,8.30
2022-11-26T07:16:13.348Z,8.40
2022-11-26T07:18:40.712Z,8.40
2022-11-26T07:21:13.125Z,8.50
2022-11-26T07:23:41.049Z,8.50
2022-11-26T07:26:09.674Z,8.50
2022-11-26T07:28:37.421Z,8.50
2022-11-26T07:31:16.422Z,8.50
2022-11-26T07:33:45.140Z,8.50
2022-11-26T07:36:25.711Z,8.50
2022-11-26T07:38:58.223Z,8.50
2022-11-26T07:41:26.876Z,8.50
2022-11-26T07:43:54.621Z,8.50
2022-11-26T07:46:25.948Z,8.50
2022-11-26T07:48:54.552Z,8.60
2022-11-26T07:51:27.522Z,8.60
2022-11-26T07:53:55.607Z,8.70
2022-11-26T07:56:22.808Z,8.70
2022-11-26T07:58:50.013Z,8.70
2022-11-26T08:01:20.663Z,8.70
2022-11-26T08:03:50.103Z,8.80
2022-11-26T08:06:20.015Z,8.80
2022-11-26T08:08:48.127Z,8.80
2022-11-26T08:11:20.966Z,8.80
2022-11-26T08:13:49.579Z,8.80
2022-11-26T08:16:16.848Z,8.80
2022-11-26T08:18:44.102Z,8.80
2022-11-26T08:21:11.323Z,8.80
2022-11-26T08:23:40.107Z,8.80
2022-11-26T08:26:23.915Z,8.90
2022-11-26T08:28:53.342Z,9.00
2022-11-26T08:31:21.018Z,9.00
2022-11-26T08:33:48.456Z,9.10
2022-11-26T08:36:15.697Z,9.10
2022-11-26T08:38:42.927Z,9.10
2022-11-26T08:41:13.947Z,9.20
2022-11-26T08:46:29.321Z,9.30
2022-11-26T08:48:57.784Z,9.50
2022-11-26T08:51:25.642Z,9.50
2022-11-26T08:53:53.801Z,9.60
2022-11-26T08:56:21.060Z,9.70
2022-11-26T08:58:49.267Z,9.70
2022-11-26T09:01:22.453Z,9.70
2022-11-26T09:03:51.428Z,9.80
2022-11-26T09:06:20.647Z,9.80
2022-11-26T09:09:06.485Z,9.80
2022-11-26T09:11:36.690Z,9.80
2022-11-26T09:14:04.654Z,9.80
2022-11-26T09:16:32.639Z,9.80
2022-11-26T09:19:01.494Z,9.90
2022-11-26T09:21:29.222Z,9.90
2022-11-26T09:23:56.550Z,9.90
2022-11-26T09:26:24.501Z,9.90
2022-11-26T09:28:51.996Z,10.00
2022-11-26T09:31:19.880Z,10.00
2022-11-26T09:33:47.496Z,9.90
2022-11-26T09:36:16.165Z,9.90
2022-11-26T09:38:43.744Z,10.00
2022-11-26T09:41:16.985Z,10.00
2022-11-26T09:44:00.643Z,10.00
2022-11-26T09:47:10.343Z,10.00
2022-11-26T09:49:47.039Z,10.00
2022-11-26T09:52:18.935Z,10.00
2022-11-26T09:54:48.330Z,10.10
2022-11-26T09:57:37.398Z,10.10
2022-11-26T10:00:18.286Z,10.10
2022-11-26T10:02:45.795Z,10.10
2022-11-26T10:05:15.907Z,10.10
2022-11-26T10:08:14.532Z,10.20
2022-11-26T10:10:57.869Z,10.20
2022-11-26T10:13:34.336Z,10.20
2022-11-26T10:16:14.978Z,10.20
2022-11-26T10:18:58.987Z,10.20
2022-11-26T10:24:35.213Z,10.20
2022-11-26T10:27:16.793Z,10.20
2022-11-26T10:29:50.098Z,10.20
2022-11-26T10:32:25.746Z,10.30
2022-11-26T10:34:58.398Z,10.30
2022-11-26T10:37:27.725Z,10.30
2022-11-26T10:40:16.787Z,10.30
2022-11-26T10:42:52.260Z,10.30
2022-11-26T10:45:23.466Z,10.30
2022-11-26T10:48:23.960Z,10.30
2022-11-26T10:51:16.696Z,10.30
2022-11-26T10:54:00.753Z,10.30
2022-11-26T10:56:41.462Z,10.30
2022-11-26T10:59:36.392Z,10.30
2022-11-26T11:02:24.582Z,10.30
2022-11-26T11:04:55.169Z,10.30
2022-11-26T11:07:41.833Z,10.30
2022-11-26T11:10:09.069Z,10.30
2022-11-26T11:12:40.704Z,10.20
2022-11-26T11:15:56.828Z,10.20
2022-11-26T11:18:25.904Z,10.20
2022-11-26T11:21:01.581Z,10.10
2022-11-26T11:24:00.213Z,10.10
2022-11-26T11:26:23.997Z,10.10
2022-11-26T11:32:34.477Z,10.10
2022-11-26T11:35:20.925Z,10.10
2022-11-26T11:37:55.889Z,10.10
2022-11-26T11:40:27.788Z,10.10
2022-11-26T11:43:05.202Z,10.10
2022-11-26T11:54:04.046Z,10.20
2022-11-26T11:56:44.764Z,10.30
2022-11-26T11:59:48.147Z,10.30
2022-11-26T12:02:32.402Z,10.30
2022-11-26T12:05:26.962Z,10.40
2022-11-26T12:08:18.496Z,10.40
2022-11-26T12:11:22.352Z,10.40
2022-11-26T12:13:57.370Z,10.40
2022-11-26T12:16:29.148Z,10.50
2022-11-26T12:19:24.433Z,10.50
2022-11-26T12:21:58.277Z,10.60
2022-11-26T12:24:46.388Z,10.60
2022-11-26T12:27:22.949Z,10.60
2022-11-26T12:29:55.590Z,10.60
2022-11-26T12:32:38.275Z,10.60
2022-11-26T12:35:12.684Z,10.60
2022-11-26T12:37:42.393Z,10.70
2022-11-26T12:40:30.361Z,10.70
2022-11-26T12:43:28.511Z,10.80
2022-11-26T12:49:16.496Z,10.80
2022-11-26T12:51:59.427Z,10.80
2022-11-26T12:54:47.296Z,10.80
2022-11-26T12:57:36.889Z,10.80
2022-11-26T13:00:13.560Z,10.80
2022-11-26T13:02:44.024Z,10.80
2022-11-26T13:05:41.646Z,10.80
2022-11-26T13:08:20.881Z,10.80
2022-11-26T13:11:05.908Z,10.90
2022-11-26T13:13:59.189Z,10.90
2022-11-26T13:16:53.372Z,10.90
2022-11-26T13:19:33.294Z,10.90
2022-11-26T13:22:31.175Z,10.90
2022-11-26T13:25:29.528Z,11.00
2022-11-26T13:28:07.361Z,11.00
2022-11-26T13:31:15.847Z,11.00
2022-11-26T13:33:43.190Z,11.00
2022-11-26T13:36:44.062Z,11.10
2022-11-26T13:39:36.348Z,11.00
2022-11-26T13:42:14.481Z,11.00
2022-11-26T13:45:09.509Z,11.00
2022-11-26T13:47:51.759Z,10.90
2022-11-26T13:50:26.991Z,10.90
2022-11-26T13:56:55.583Z,10.90
2022-11-26T13:59:28.886Z,10.90
2022-11-26T14:02:01.096Z,10.90
2022-11-26T14:04:28.493Z,10.90
2022-11-26T14:07:04.739Z,10.90
2022-11-26T14:09:53.525Z,10.90
2022-11-26T14:12:23.086Z,10.90
2022-11-26T14:14:53.446Z,10.80
2022-11-26T14:17:31.161Z,10.80
2022-11-26T14:20:01.884Z,10.70
2022-11-26T14:22:31.972Z,10.70
2022-11-26T14:25:02.254Z,10.70
2022-11-26T14:27:43.826Z,10.60
2022-11-26T14:30:19.333Z,10.60
2022-11-26T14:33:05.702Z,10.50
2022-11-26T14:35:40.683Z,10.50
2022-11-26T14:38:27.177Z,10.50
2022-11-26T14:41:01.646Z,10.50
2022-11-26T14:43:29.844Z,10.50
2022-11-26T14:46:17.611Z,10.50
2022-11-26T14:48:47.915Z,10.40
2022-11-26T14:51:26.703Z,10.40
2022-11-26T14:53:55.679Z,10.40
2022-11-26T14:56:25.559Z,10.50
2022-11-26T14:58:56.339Z,10.50
2022-11-26T15:01:27.422Z,10.50
2022-11-26T15:04:06.989Z,10.50
2022-11-26T15:06:39.741Z,10.50
2022-11-26T15:09:36.613Z,10.50
2022-11-26T15:12:11.454Z,10.50
2022-11-26T15:14:50.503Z,10.50
2022-11-26T15:17:20.702Z,10.50
2022-11-26T15:19:51.975Z,10.50
2022-11-26T15:22:38.625Z,10.40
2022-11-26T15:25:15.682Z,10.40
2022-11-26T15:27:54.826Z,10.40
2022-11-26T15:30:30.256Z,10.40
2022-11-26T15:32:58.366Z,10.40
2022-11-26T15:35:25.994Z,10.30
2022-11-26T15:38:05.675Z,10.30
2022-11-26T15:40:52.106Z,10.30
2022-11-26T15:43:36.998Z,10.30
2022-11-26T15:46:16.367Z,10.30
2022-11-26T15:48:52.103Z,10.30
2022-11-26T15:51:52.133Z,10.30
2022-11-26T15:54:38.356Z,10.30
2022-11-26T15:57:35.444Z,10.30
2022-11-26T16:00:07.763Z,10.30
2022-11-26T16:02:38.805Z,10.30
2022-11-26T16:05:24.268Z,10.30
2022-11-26T16:08:04.717Z,10.20
2022-11-26T16:10:37.219Z,10.20
2022-11-26T16:13:15.703Z,10.20
2022-11-26T16:15:51.247Z,10.20
2022-11-26T16:18:23.560Z,10.20
2022-11-26T16:20:51.074Z,10.20
2022-11-26T16:23:29.736Z,10.20
2022-11-26T16:26:10.151Z,10.20
2022-11-26T16:28:37.923Z,10.20
2022-11-26T16:31:05.560Z,10.20
2022-11-26T16:33:32.973Z,10.20
2022-11-26T16:36:01.112Z,10.20
2022-11-26T16:38:29.584Z,10.20
2022-11-26T16:40:56.739Z,10.20
2022-11-26T16:43:24.202Z,10.20
2022-11-26T16:45:55.811Z,10.20
2022-11-26T16:48:26.075Z,10.30
2022-11-26T16:50:57.120Z,10.30
2022-11-26T16:53:24.891Z,10.30
2022-11-26T16:55:53.975Z,10.30
2022-11-26T16:58:28.349Z,10.30
2022-11-26T17:01:14.849Z,10.30
2022-11-26T17:03:48.241Z,10.30
2022-11-26T17:06:46.560Z,10.40
2022-11-26T17:09:22.606Z,10.40
2022-11-26T17:11:50.385Z,10.30
2022-11-26T17:14:18.209Z,10.30
2022-11-26T17:16:45.908Z,10.30
2022-11-26T17:19:15.273Z,10.30
2022-11-26T17:21:42.911Z,10.30
2022-11-26T17:24:10.263Z,10.30
2022-11-26T17:26:37.918Z,10.40
2022-11-26T17:29:05.183Z,10.40
2022-11-26T17:31:36.949Z,10.30
2022-11-26T17:34:06.500Z,10.40
2022-11-26T17:36:36.847Z,10.30
2022-11-26T17:39:04.642Z,10.30
2022-11-26T17:41:31.983Z,10.30
2022-11-26T17:43:59.767Z,10.40
2022-11-26T17:46:31.248Z,10.40
2022-11-26T17:49:02.950Z,10.40
2022-11-26T17:51:30.282Z,10.40
2022-11-26T17:53:57.910Z,10.40
2022-11-26T17:56:27.146Z,10.40
2022-11-26T17:58:55.222Z,10.40
2022-11-26T18:01:26.802Z,10.40
2022-11-26T18:03:54.863Z,10.40
2022-11-26T18:06:54.068Z,10.40
2022-11-26T18:09:21.576Z,10.40
2022-11-26T18:11:52.340Z,10.40
2022-11-26T18:14:20.267Z,10.40
2022-11-26T18:16:48.194Z,10.40
2022-11-26T18:19:17.632Z,10.40
2022-11-26T18:21:45.910Z,10.40
2022-11-26T18:24:14.466Z,10.40
2022-11-26T18:26:41.881Z,10.40
2022-11-26T18:29:10.264Z,10.40
2022-11-26T18:31:39.891Z,10.40
2022-11-26T18:34:08.724Z,10.40
2022-11-26T18:36:35.997Z,10.30
2022-11-26T18:39:04.808Z,10.40
2022-11-26T18:41:32.490Z,10.40
2022-11-26T18:44:01.357Z,10.40
2022-11-26T18:46:28.562Z,10.30
2022-11-26T18:48:57.814Z,10.30
2022-11-26T18:51:25.652Z,10.30
2022-11-26T18:53:53.388Z,10.30
2022-11-26T18:56:23.209Z,10.30
2022-11-26T18:58:51.162Z,10.30
2022-11-26T19:01:27.841Z,10.40
2022-11-26T19:03:56.679Z,10.40
2022-11-26T19:06:27.049Z,10.40
2022-11-26T19:09:00.503Z,10.40
2022-11-26T19:15:17.129Z,10.40
2022-11-26T19:17:44.571Z,10.40
2022-11-26T19:20:14.142Z,10.40
2022-11-26T19:22:41.603Z,10.40
2022-11-26T19:25:09.242Z,10.40
2022-11-26T19:27:36.570Z,10.40
2022-11-26T19:30:04.623Z,10.40
2022-11-26T19:32:32.085Z,10.40
2022-11-26T19:35:05.379Z,10.40
2022-11-26T19:37:33.259Z,10.40
2022-11-26T19:40:00.563Z,10.40
2022-11-26T19:42:30.103Z,10.40
2022-11-26T19:44:57.273Z,10.40
2022-11-26T19:47:24.712Z,10.40
2022-11-26T19:49:51.999Z,10.40
2022-11-26T19:52:19.271Z,10.50
2022-11-26T19:55:06.076Z,10.50
2022-11-26T19:57:33.567Z,10.50
2022-11-26T20:00:00.853Z,10.50
2022-11-26T20:02:28.406Z,10.50
2022-11-26T20:04:56.626Z,10.50
2022-11-26T20:07:24.038Z,10.50
2022-11-26T20:09:52.534Z,10.50
2022-11-26T20:12:20.095Z,10.50
2022-11-26T20:14:48.120Z,10.50
2022-11-26T20:17:15.820Z,10.50
2022-11-26T20:19:43.129Z,10.50
2022-11-26T20:22:10.420Z,10.50
2022-11-26T20:24:37.577Z,10.50
2022-11-26T20:27:04.963Z,10.50
2022-11-26T20:29:32.134Z,10.50
2022-11-26T20:32:26.632Z,10.40
2022-11-26T20:34:53.952Z,10.40
2022-11-26T20:37:21.181Z,10.40
2022-11-26T20:39:48.699Z,10.40
2022-11-26T20:42:15.990Z,10.40
2022-11-26T20:44:43.334Z,10.40
2022-11-26T20:47:12.822Z,10.30
2022-11-26T20:49:42.838Z,10.30
2022-11-26T20:52:10.864Z,10.30
2022-11-26T20:54:38.097Z,10.20
2022-11-26T20:57:06.978Z,10.20
2022-11-26T20:59:34.153Z,10.20
2022-11-26T21:02:01.419Z,10.20
2022-11-26T21:04:28.760Z,10.20
2022-11-26T21:06:56.008Z,10.20
2022-11-26T21:09:23.184Z,10.20
2022-11-26T21:11:50.450Z,10.10
2022-11-26T21:14:17.730Z,10.10
2022-11-26T21:16:45.173Z,10.10
2022-11-26T21:19:12.981Z,10.10
2022-11-26T21:21:40.595Z,10.10
2022-11-26T21:24:08.430Z,10.10
2022-11-26T21:26:36.026Z,10.10
2022-11-26T21:29:03.650Z,10.10
2022-11-26T21:31:32.347Z,10.10
2022-11-26T21:34:03.766Z,10.10
2022-11-26T21:36:33.340Z,10.10
2022-11-26T21:39:00.843Z,10.10
2022-11-26T21:41:28.725Z,10.10
2022-11-26T21:43:56.216Z,10.10
2022-11-26T21:46:26.435Z,10.10
2022-11-26T21:48:55.012Z,10.10
2022-11-26T21:51:23.444Z,10.10
2022-11-26T21:53:50.799Z,10.10
2022-11-26T21:56:22.917Z,10.10
2022-11-26T21:58:50.972Z,10.10
2022-11-26T22:01:33.823Z,10.10
2022-11-26T22:04:04.569Z,10.20
2022-11-26T22:06:32.201Z,10.20
2022-11-26T22:12:18.252Z,10.20
2022-11-26T22:14:47.969Z,10.20
2022-11-26T22:17:15.940Z,10.20
2022-11-26T22:19:43.243Z,10.20
2022-11-26T22:22:10.405Z,10.20
2022-11-26T22:24:37.662Z,10.20
2022-11-26T22:27:05.682Z,10.20
2022-11-26T22:29:33.036Z,10.20
2022-11-26T22:32:00.206Z,10.30
2022-11-26T22:34:29.139Z,10.30
2022-11-26T22:36:56.339Z,10.30
2022-11-26T22:39:23.701Z,10.30
2022-11-26T22:41:50.781Z,10.30
2022-11-26T22:44:18.712Z,10.30
2022-11-26T22:46:45.948Z,10.30
2022-11-26T22:49:15.894Z,10.30
2022-11-26T22:51:43.565Z,10.20
2022-11-26T22:54:13.128Z,10.20
2022-11-26T22:56:40.494Z,10.20
2022-11-26T22:59:09.084Z,10.20
2022-11-26T23:01:37.506Z,10.20
2022-11-26T23:04:07.887Z,10.20
2022-11-26T23:06:36.256Z,10.20
2022-11-26T23:09:06.197Z,10.20
2022-11-26T23:11:40.528Z,10.20
2022-11-26T23:14:09.666Z,10.20
2022-11-26T23:16:39.556Z,10.20
2022-11-26T23:19:07.333Z,10.20
2022-11-26T23:21:39.814Z,10.20
2022-11-26T23:24:08.036Z,10.20
2022-11-26T23:26:36.947Z,10.20
2022-11-26T23:29:05.296Z,10.20
2022-11-26T23:31:38.410Z,10.20
2022-11-26T23:34:06.542Z,10.20
2022-11-26T23:36:34.816Z,10.20
2022-11-26T23:39:03.888Z,10.20
2022-11-26T23:41:31.317Z,10.20
2022-11-26T23:43:58.790Z,10.20
2022-11-26T23:46:28.890Z,10.20
2022-11-26T23:48:56.328Z,10.10
2022-11-26T23:51:26.840Z,10.10
2022-11-26T23:53:54.277Z,10.10
2022-11-26T23:56:25.288Z,10.10
2022-11-26T23:58:54.832Z,10.10
